sensor_id;sensor_type;location;lat;lon;timestamp;P1;durP1;ratioP1;P2;durP2;ratioP2
22382;SDS011;11359;45.802;13.530;2023-04-07T00:00:53;0.95;;;0.73;;
22382;SDS011;11359;45.802;13.530;2023-04-07T00:03:19;0.90;;;0.70;;
22382;SDS011;11359;45.802;13.530;2023-04-07T00:05:45;0.85;;;0.70;;
22382;SDS011;11359;45.802;13.530;2023-04-07T00:08:11;0.85;;;0.73;;
22382;SDS011;11359;45.802;13.530;2023-04-07T00:10:43;2.10;;;1.00;;
22382;SDS011;11359;45.802;13.530;2023-04-07T00:13:09;1.27;;;0.80;;
22382;SDS011;11359;45.802;13.530;2023-04-07T00:15:35;1.40;;;1.00;;
22382;SDS011;11359;45.802;13.530;2023-04-07T00:18:00;1.00;;;0.80;;
22382;SDS011;11359;45.802;13.530;2023-04-07T00:20:26;1.40;;;0.80;;
22382;SDS011;11359;45.802;13.530;2023-04-07T00:22:52;1.35;;;1.00;;
22382;SDS011;11359;45.802;13.530;2023-04-07T00:25:17;1.27;;;0.77;;
22382;SDS011;11359;45.802;13.530;2023-04-07T00:27:43;1.35;;;0.77;;
22382;SDS011;11359;45.802;13.530;2023-04-07T00:30:09;0.80;;;0.65;;
22382;SDS011;11359;45.802;13.530;2023-04-07T00:32:35;1.40;;;0.93;;
22382;SDS011;11359;45.802;13.530;2023-04-07T00:35:01;1.25;;;0.75;;
22382;SDS011;11359;45.802;13.530;2023-04-07T00:37:27;0.82;;;0.77;;
22382;SDS011;11359;45.802;13.530;2023-04-07T00:39:52;1.00;;;0.80;;
22382;SDS011;11359;45.802;13.530;2023-04-07T00:42:18;1.38;;;0.80;;
22382;SDS011;11359;45.802;13.530;2023-04-07T00:44:44;1.50;;;1.08;;
22382;SDS011;11359;45.802;13.530;2023-04-07T00:47:10;1.23;;;0.90;;
22382;SDS011;11359;45.802;13.530;2023-04-07T00:49:36;1.27;;;0.90;;
22382;SDS011;11359;45.802;13.530;2023-04-07T00:52:03;1.05;;;0.85;;
22382;SDS011;11359;45.802;13.530;2023-04-07T00:54:30;1.00;;;0.80;;
22382;SDS011;11359;45.802;13.530;2023-04-07T00:56:56;1.42;;;1.00;;
22382;SDS011;11359;45.802;13.530;2023-04-07T00:59:22;1.20;;;1.00;;
22382;SDS011;11359;45.802;13.530;2023-04-07T01:01:57;1.20;;;1.00;;
22382;SDS011;11359;45.802;13.530;2023-04-07T01:04:47;1.75;;;1.20;;
22382;SDS011;11359;45.802;13.530;2023-04-07T01:07:22;1.77;;;1.17;;
22382;SDS011;11359;45.802;13.530;2023-04-07T01:10:13;1.38;;;1.00;;
22382;SDS011;11359;45.802;13.530;2023-04-07T01:15:27;1.48;;;1.00;;
22382;SDS011;11359;45.802;13.530;2023-04-07T01:18:00;1.25;;;1.00;;
22382;SDS011;11359;45.802;13.530;2023-04-07T01:20:34;1.77;;;1.17;;
22382;SDS011;11359;45.802;13.530;2023-04-07T01:23:03;1.10;;;0.90;;
22382;SDS011;11359;45.802;13.530;2023-04-07T01:25:52;1.50;;;1.00;;
22382;SDS011;11359;45.802;13.530;2023-04-07T01:28:49;1.63;;;1.00;;
22382;SDS011;11359;45.802;13.530;2023-04-07T01:31:28;1.58;;;1.17;;
22382;SDS011;11359;45.802;13.530;2023-04-07T01:33:54;1.13;;;0.90;;
22382;SDS011;11359;45.802;13.530;2023-04-07T01:36:23;1.55;;;1.10;;
22382;SDS011;11359;45.802;13.530;2023-04-07T01:38:52;1.85;;;1.10;;
22382;SDS011;11359;45.802;13.530;2023-04-07T01:41:19;1.48;;;0.90;;
22382;SDS011;11359;45.802;13.530;2023-04-07T01:43:47;1.63;;;1.10;;
22382;SDS011;11359;45.802;13.530;2023-04-07T01:46:14;1.30;;;0.90;;
22382;SDS011;11359;45.802;13.530;2023-04-07T01:48:40;1.40;;;0.90;;
22382;SDS011;11359;45.802;13.530;2023-04-07T01:51:06;1.52;;;1.10;;
22382;SDS011;11359;45.802;13.530;2023-04-07T01:53:33;1.05;;;0.90;;
22382;SDS011;11359;45.802;13.530;2023-04-07T01:56:02;1.38;;;0.95;;
22382;SDS011;11359;45.802;13.530;2023-04-07T01:58:28;1.17;;;0.80;;
22382;SDS011;11359;45.802;13.530;2023-04-07T02:00:53;1.05;;;0.90;;
22382;SDS011;11359;45.802;13.530;2023-04-07T02:03:22;1.10;;;0.82;;
22382;SDS011;11359;45.802;13.530;2023-04-07T02:05:53;1.02;;;0.80;;
22382;SDS011;11359;45.802;13.530;2023-04-07T02:08:21;1.55;;;0.88;;
22382;SDS011;11359;45.802;13.530;2023-04-07T02:10:51;1.20;;;1.00;;
22382;SDS011;11359;45.802;13.530;2023-04-07T02:13:19;1.10;;;0.90;;
22382;SDS011;11359;45.802;13.530;2023-04-07T02:15:45;1.10;;;0.90;;
22382;SDS011;11359;45.802;13.530;2023-04-07T02:18:14;1.08;;;0.80;;
22382;SDS011;11359;45.802;13.530;2023-04-07T02:20:41;0.98;;;0.80;;
22382;SDS011;11359;45.802;13.530;2023-04-07T02:23:08;1.33;;;1.00;;
22382;SDS011;11359;45.802;13.530;2023-04-07T02:25:34;0.90;;;0.70;;
22382;SDS011;11359;45.802;13.530;2023-04-07T02:28:02;1.30;;;0.95;;
22382;SDS011;11359;45.802;13.530;2023-04-07T02:30:30;1.35;;;1.00;;
22382;SDS011;11359;45.802;13.530;2023-04-07T02:32:56;1.00;;;0.90;;
22382;SDS011;11359;45.802;13.530;2023-04-07T02:35:22;1.23;;;0.95;;
22382;SDS011;11359;45.802;13.530;2023-04-07T02:37:48;0.82;;;0.73;;
22382;SDS011;11359;45.802;13.530;2023-04-07T02:40:17;1.10;;;0.80;;
22382;SDS011;11359;45.802;13.530;2023-04-07T02:42:43;1.00;;;0.82;;
22382;SDS011;11359;45.802;13.530;2023-04-07T02:45:09;1.10;;;0.93;;
22382;SDS011;11359;45.802;13.530;2023-04-07T02:47:35;0.90;;;0.70;;
22382;SDS011;11359;45.802;13.530;2023-04-07T02:50:03;1.10;;;1.00;;
22382;SDS011;11359;45.802;13.530;2023-04-07T02:52:29;0.90;;;0.80;;
22382;SDS011;11359;45.802;13.530;2023-04-07T02:54:55;0.88;;;0.70;;
22382;SDS011;11359;45.802;13.530;2023-04-07T02:57:21;1.05;;;0.80;;
22382;SDS011;11359;45.802;13.530;2023-04-07T02:59:47;1.25;;;0.80;;
22382;SDS011;11359;45.802;13.530;2023-04-07T03:02:13;0.95;;;0.70;;
22382;SDS011;11359;45.802;13.530;2023-04-07T03:04:38;1.00;;;0.75;;
22382;SDS011;11359;45.802;13.530;2023-04-07T03:07:05;0.98;;;0.80;;
22382;SDS011;11359;45.802;13.530;2023-04-07T03:09:30;1.10;;;0.80;;
22382;SDS011;11359;45.802;13.530;2023-04-07T03:11:56;1.17;;;0.80;;
22382;SDS011;11359;45.802;13.530;2023-04-07T03:14:22;0.80;;;0.70;;
22382;SDS011;11359;45.802;13.530;2023-04-07T03:16:48;1.20;;;1.00;;
22382;SDS011;11359;45.802;13.530;2023-04-07T03:19:13;1.15;;;0.70;;
22382;SDS011;11359;45.802;13.530;2023-04-07T03:21:40;0.90;;;0.70;;
22382;SDS011;11359;45.802;13.530;2023-04-07T03:24:06;1.10;;;0.90;;
22382;SDS011;11359;45.802;13.530;2023-04-07T03:26:32;1.17;;;0.90;;
22382;SDS011;11359;45.802;13.530;2023-04-07T03:28:57;1.10;;;0.90;;
22382;SDS011;11359;45.802;13.530;2023-04-07T03:31:23;1.00;;;0.88;;
22382;SDS011;11359;45.802;13.530;2023-04-07T03:33:50;1.02;;;0.90;;
22382;SDS011;11359;45.802;13.530;2023-04-07T03:36:16;1.40;;;1.10;;
22382;SDS011;11359;45.802;13.530;2023-04-07T03:38:45;1.38;;;1.02;;
22382;SDS011;11359;45.802;13.530;2023-04-07T03:41:11;1.17;;;0.90;;
22382;SDS011;11359;45.802;13.530;2023-04-07T03:43:37;1.17;;;0.90;;
22382;SDS011;11359;45.802;13.530;2023-04-07T03:46:03;1.20;;;0.77;;
22382;SDS011;11359;45.802;13.530;2023-04-07T03:48:29;0.98;;;0.90;;
22382;SDS011;11359;45.802;13.530;2023-04-07T03:51:02;1.05;;;0.85;;
22382;SDS011;11359;45.802;13.530;2023-04-07T03:53:27;0.65;;;0.65;;
22382;SDS011;11359;45.802;13.530;2023-04-07T03:55:53;0.90;;;0.80;;
22382;SDS011;11359;45.802;13.530;2023-04-07T03:58:19;0.95;;;0.85;;
22382;SDS011;11359;45.802;13.530;2023-04-07T04:00:45;0.80;;;0.75;;
22382;SDS011;11359;45.802;13.530;2023-04-07T04:03:11;1.30;;;1.08;;
22382;SDS011;11359;45.802;13.530;2023-04-07T04:05:36;0.85;;;0.70;;
22382;SDS011;11359;45.802;13.530;2023-04-07T04:08:02;1.30;;;1.00;;
22382;SDS011;11359;45.802;13.530;2023-04-07T04:10:28;1.10;;;0.80;;
22382;SDS011;11359;45.802;13.530;2023-04-07T04:12:54;1.00;;;0.70;;
22382;SDS011;11359;45.802;13.530;2023-04-07T04:15:19;1.13;;;0.80;;
22382;SDS011;11359;45.802;13.530;2023-04-07T04:17:46;1.35;;;0.80;;
22382;SDS011;11359;45.802;13.530;2023-04-07T04:20:11;1.00;;;0.82;;
22382;SDS011;11359;45.802;13.530;2023-04-07T04:22:37;0.80;;;0.70;;
22382;SDS011;11359;45.802;13.530;2023-04-07T04:25:03;0.52;;;0.52;;
22382;SDS011;11359;45.802;13.530;2023-04-07T04:27:29;0.80;;;0.70;;
22382;SDS011;11359;45.802;13.530;2023-04-07T04:29:55;1.00;;;0.80;;
22382;SDS011;11359;45.802;13.530;2023-04-07T04:32:21;1.02;;;0.88;;
22382;SDS011;11359;45.802;13.530;2023-04-07T04:34:47;0.98;;;0.88;;
22382;SDS011;11359;45.802;13.530;2023-04-07T04:37:13;1.00;;;0.80;;
22382;SDS011;11359;45.802;13.530;2023-04-07T04:39:38;0.70;;;0.63;;
22382;SDS011;11359;45.802;13.530;2023-04-07T04:42:04;0.90;;;0.70;;
22382;SDS011;11359;45.802;13.530;2023-04-07T04:44:31;0.98;;;0.80;;
22382;SDS011;11359;45.802;13.530;2023-04-07T04:46:57;1.02;;;0.85;;
22382;SDS011;11359;45.802;13.530;2023-04-07T04:49:22;1.27;;;1.00;;
22382;SDS011;11359;45.802;13.530;2023-04-07T04:51:48;1.15;;;0.80;;
22382;SDS011;11359;45.802;13.530;2023-04-07T04:54:15;1.05;;;0.80;;
22382;SDS011;11359;45.802;13.530;2023-04-07T04:56:40;1.10;;;0.90;;
22382;SDS011;11359;45.802;13.530;2023-04-07T04:59:06;1.00;;;0.80;;
22382;SDS011;11359;45.802;13.530;2023-04-07T05:01:32;0.90;;;0.75;;
22382;SDS011;11359;45.802;13.530;2023-04-07T05:03:59;1.15;;;0.90;;
22382;SDS011;11359;45.802;13.530;2023-04-07T05:06:25;1.23;;;0.90;;
22382;SDS011;11359;45.802;13.530;2023-04-07T05:08:51;1.10;;;1.00;;
22382;SDS011;11359;45.802;13.530;2023-04-07T05:11:17;1.10;;;0.85;;
22382;SDS011;11359;45.802;13.530;2023-04-07T05:13:43;0.95;;;0.80;;
22382;SDS011;11359;45.802;13.530;2023-04-07T05:16:09;1.20;;;0.90;;
22382;SDS011;11359;45.802;13.530;2023-04-07T05:18:35;1.13;;;0.88;;
22382;SDS011;11359;45.802;13.530;2023-04-07T05:21:01;1.20;;;0.90;;
22382;SDS011;11359;45.802;13.530;2023-04-07T05:23:27;1.13;;;0.90;;
22382;SDS011;11359;45.802;13.530;2023-04-07T05:25:52;1.00;;;0.90;;
22382;SDS011;11359;45.802;13.530;2023-04-07T05:28:18;1.15;;;0.98;;
22382;SDS011;11359;45.802;13.530;2023-04-07T05:30:44;1.30;;;1.20;;
22382;SDS011;11359;45.802;13.530;2023-04-07T05:33:10;1.00;;;0.90;;
22382;SDS011;11359;45.802;13.530;2023-04-07T05:35:35;1.05;;;0.85;;
22382;SDS011;11359;45.802;13.530;2023-04-07T05:38:01;1.05;;;0.70;;
22382;SDS011;11359;45.802;13.530;2023-04-07T05:40:27;1.33;;;1.05;;
22382;SDS011;11359;45.802;13.530;2023-04-07T05:42:54;0.80;;;0.77;;
22382;SDS011;11359;45.802;13.530;2023-04-07T05:45:20;0.80;;;0.80;;
22382;SDS011;11359;45.802;13.530;2023-04-07T05:47:46;0.80;;;0.70;;
22382;SDS011;11359;45.802;13.530;2023-04-07T05:50:17;0.70;;;0.60;;
22382;SDS011;11359;45.802;13.530;2023-04-07T05:52:43;1.17;;;0.88;;
22382;SDS011;11359;45.802;13.530;2023-04-07T05:55:09;0.90;;;0.70;;
22382;SDS011;11359;45.802;13.530;2023-04-07T05:57:35;1.05;;;0.70;;
22382;SDS011;11359;45.802;13.530;2023-04-07T06:00:00;0.70;;;0.60;;
22382;SDS011;11359;45.802;13.530;2023-04-07T06:02:26;1.15;;;0.77;;
22382;SDS011;11359;45.802;13.530;2023-04-07T06:04:52;0.77;;;0.60;;
22382;SDS011;11359;45.802;13.530;2023-04-07T06:07:20;1.00;;;0.75;;
22382;SDS011;11359;45.802;13.530;2023-04-07T06:09:46;0.90;;;0.77;;
22382;SDS011;11359;45.802;13.530;2023-04-07T06:12:12;1.05;;;0.77;;
22382;SDS011;11359;45.802;13.530;2023-04-07T06:14:41;0.77;;;0.70;;
22382;SDS011;11359;45.802;13.530;2023-04-07T06:17:08;0.80;;;0.73;;
22382;SDS011;11359;45.802;13.530;2023-04-07T06:19:33;1.00;;;0.70;;
22382;SDS011;11359;45.802;13.530;2023-04-07T06:21:59;0.63;;;0.60;;
22382;SDS011;11359;45.802;13.530;2023-04-07T06:24:25;0.85;;;0.60;;
22382;SDS011;11359;45.802;13.530;2023-04-07T06:26:51;0.70;;;0.50;;
22382;SDS011;11359;45.802;13.530;2023-04-07T06:29:17;0.73;;;0.70;;
22382;SDS011;11359;45.802;13.530;2023-04-07T06:31:43;1.42;;;0.80;;
22382;SDS011;11359;45.802;13.530;2023-04-07T06:34:09;0.75;;;0.75;;
22382;SDS011;11359;45.802;13.530;2023-04-07T06:36:34;1.08;;;0.70;;
22382;SDS011;11359;45.802;13.530;2023-04-07T06:39:00;0.90;;;0.80;;
22382;SDS011;11359;45.802;13.530;2023-04-07T06:41:26;1.45;;;0.77;;
22382;SDS011;11359;45.802;13.530;2023-04-07T06:43:52;0.77;;;0.70;;
22382;SDS011;11359;45.802;13.530;2023-04-07T06:46:18;1.00;;;0.80;;
22382;SDS011;11359;45.802;13.530;2023-04-07T06:48:44;0.80;;;0.70;;
22382;SDS011;11359;45.802;13.530;2023-04-07T06:51:11;1.15;;;0.90;;
22382;SDS011;11359;45.802;13.530;2023-04-07T06:53:37;0.70;;;0.60;;
22382;SDS011;11359;45.802;13.530;2023-04-07T06:56:06;0.82;;;0.70;;
22382;SDS011;11359;45.802;13.530;2023-04-07T06:58:34;0.80;;;0.60;;
22382;SDS011;11359;45.802;13.530;2023-04-07T07:01:01;0.93;;;0.80;;
22382;SDS011;11359;45.802;13.530;2023-04-07T07:03:28;1.17;;;0.80;;
22382;SDS011;11359;45.802;13.530;2023-04-07T07:05:56;0.82;;;0.70;;
22382;SDS011;11359;45.802;13.530;2023-04-07T07:08:23;1.23;;;0.98;;
22382;SDS011;11359;45.802;13.530;2023-04-07T07:10:50;1.00;;;0.80;;
22382;SDS011;11359;45.802;13.530;2023-04-07T07:13:17;1.02;;;0.80;;
22382;SDS011;11359;45.802;13.530;2023-04-07T07:15:43;0.93;;;0.68;;
22382;SDS011;11359;45.802;13.530;2023-04-07T07:18:10;1.20;;;0.80;;
22382;SDS011;11359;45.802;13.530;2023-04-07T07:20:36;1.38;;;0.93;;
22382;SDS011;11359;45.802;13.530;2023-04-07T07:23:02;1.15;;;0.90;;
22382;SDS011;11359;45.802;13.530;2023-04-07T07:25:28;0.70;;;0.70;;
22382;SDS011;11359;45.802;13.530;2023-04-07T07:27:54;0.93;;;0.70;;
22382;SDS011;11359;45.802;13.530;2023-04-07T07:30:21;0.80;;;0.60;;
22382;SDS011;11359;45.802;13.530;2023-04-07T07:32:48;0.80;;;0.70;;
22382;SDS011;11359;45.802;13.530;2023-04-07T07:35:14;1.30;;;0.90;;
22382;SDS011;11359;45.802;13.530;2023-04-07T07:37:41;0.68;;;0.52;;
22382;SDS011;11359;45.802;13.530;2023-04-07T07:40:08;1.00;;;0.80;;
22382;SDS011;11359;45.802;13.530;2023-04-07T07:42:35;1.10;;;0.75;;
22382;SDS011;11359;45.802;13.530;2023-04-07T07:45:01;1.20;;;0.80;;
22382;SDS011;11359;45.802;13.530;2023-04-07T07:47:27;1.05;;;0.70;;
22382;SDS011;11359;45.802;13.530;2023-04-07T07:49:53;0.80;;;0.70;;
22382;SDS011;11359;45.802;13.530;2023-04-07T07:52:20;0.93;;;0.80;;
22382;SDS011;11359;45.802;13.530;2023-04-07T07:54:49;0.75;;;0.70;;
22382;SDS011;11359;45.802;13.530;2023-04-07T07:57:16;1.40;;;0.80;;
22382;SDS011;11359;45.802;13.530;2023-04-07T07:59:42;1.50;;;0.90;;
22382;SDS011;11359;45.802;13.530;2023-04-07T08:02:08;1.00;;;0.80;;
22382;SDS011;11359;45.802;13.530;2023-04-07T08:04:35;0.90;;;0.77;;
22382;SDS011;11359;45.802;13.530;2023-04-07T08:07:01;1.65;;;1.00;;
22382;SDS011;11359;45.802;13.530;2023-04-07T08:09:28;0.98;;;0.80;;
22382;SDS011;11359;45.802;13.530;2023-04-07T08:11:54;1.67;;;0.93;;
22382;SDS011;11359;45.802;13.530;2023-04-07T08:14:20;1.50;;;0.80;;
22382;SDS011;11359;45.802;13.530;2023-04-07T08:16:46;1.20;;;0.90;;
22382;SDS011;11359;45.802;13.530;2023-04-07T08:19:12;1.25;;;0.90;;
22382;SDS011;11359;45.802;13.530;2023-04-07T08:21:38;1.83;;;1.10;;
22382;SDS011;11359;45.802;13.530;2023-04-07T08:24:04;1.00;;;0.90;;
22382;SDS011;11359;45.802;13.530;2023-04-07T08:26:31;1.35;;;0.95;;
22382;SDS011;11359;45.802;13.530;2023-04-07T08:28:57;1.10;;;0.90;;
22382;SDS011;11359;45.802;13.530;2023-04-07T08:31:23;1.70;;;1.10;;
22382;SDS011;11359;45.802;13.530;2023-04-07T08:33:50;1.83;;;1.25;;
22382;SDS011;11359;45.802;13.530;2023-04-07T08:36:25;2.22;;;1.30;;
22382;SDS011;11359;45.802;13.530;2023-04-07T08:38:54;1.63;;;1.08;;
22382;SDS011;11359;45.802;13.530;2023-04-07T08:41:23;2.38;;;1.42;;
22382;SDS011;11359;45.802;13.530;2023-04-07T08:43:56;1.55;;;1.00;;
22382;SDS011;11359;45.802;13.530;2023-04-07T08:46:22;1.48;;;1.10;;
22382;SDS011;11359;45.802;13.530;2023-04-07T08:48:50;1.88;;;1.10;;
22382;SDS011;11359;45.802;13.530;2023-04-07T08:51:28;1.08;;;0.82;;
22382;SDS011;11359;45.802;13.530;2023-04-07T08:54:15;1.70;;;1.08;;
22382;SDS011;11359;45.802;13.530;2023-04-07T08:56:46;1.40;;;0.90;;
22382;SDS011;11359;45.802;13.530;2023-04-07T08:59:13;1.27;;;0.95;;
22382;SDS011;11359;45.802;13.530;2023-04-07T09:01:39;1.33;;;0.90;;
22382;SDS011;11359;45.802;13.530;2023-04-07T09:04:06;1.08;;;0.80;;
22382;SDS011;11359;45.802;13.530;2023-04-07T09:06:34;1.30;;;0.90;;
22382;SDS011;11359;45.802;13.530;2023-04-07T09:09:00;1.10;;;0.70;;
22382;SDS011;11359;45.802;13.530;2023-04-07T09:11:33;0.82;;;0.73;;
22382;SDS011;11359;45.802;13.530;2023-04-07T09:14:00;1.27;;;0.88;;
22382;SDS011;11359;45.802;13.530;2023-04-07T09:16:27;0.70;;;0.70;;
22382;SDS011;11359;45.802;13.530;2023-04-07T09:18:55;1.38;;;1.13;;
22382;SDS011;11359;45.802;13.530;2023-04-07T09:21:21;1.98;;;1.10;;
22382;SDS011;11359;45.802;13.530;2023-04-07T09:23:47;1.40;;;1.00;;
22382;SDS011;11359;45.802;13.530;2023-04-07T09:26:23;1.33;;;1.00;;
22382;SDS011;11359;45.802;13.530;2023-04-07T09:34:24;1.95;;;1.23;;
22382;SDS011;11359;45.802;13.530;2023-04-07T09:36:54;2.00;;;1.00;;
22382;SDS011;11359;45.802;13.530;2023-04-07T09:39:21;1.15;;;0.90;;
22382;SDS011;11359;45.802;13.530;2023-04-07T09:41:47;1.35;;;1.00;;
22382;SDS011;11359;45.802;13.530;2023-04-07T09:44:13;1.10;;;0.70;;
22382;SDS011;11359;45.802;13.530;2023-04-07T09:46:55;1.17;;;0.90;;
22382;SDS011;11359;45.802;13.530;2023-04-07T09:49:24;1.02;;;0.88;;
22382;SDS011;11359;45.802;13.530;2023-04-07T09:51:58;3.60;;;1.13;;
22382;SDS011;11359;45.802;13.530;2023-04-07T09:54:35;1.08;;;0.98;;
22382;SDS011;11359;45.802;13.530;2023-04-07T09:57:02;1.33;;;1.00;;
22382;SDS011;11359;45.802;13.530;2023-04-07T09:59:30;1.23;;;0.90;;
22382;SDS011;11359;45.802;13.530;2023-04-07T10:01:56;1.27;;;0.82;;
22382;SDS011;11359;45.802;13.530;2023-04-07T10:04:23;1.50;;;1.10;;
22382;SDS011;11359;45.802;13.530;2023-04-07T10:06:51;1.92;;;1.10;;
22382;SDS011;11359;45.802;13.530;2023-04-07T10:09:19;1.38;;;1.00;;
22382;SDS011;11359;45.802;13.530;2023-04-07T10:11:49;1.00;;;0.90;;
22382;SDS011;11359;45.802;13.530;2023-04-07T10:14:17;0.98;;;0.88;;
22382;SDS011;11359;45.802;13.530;2023-04-07T10:16:45;1.00;;;0.80;;
22382;SDS011;11359;45.802;13.530;2023-04-07T10:19:12;1.10;;;0.80;;
22382;SDS011;11359;45.802;13.530;2023-04-07T10:21:40;0.90;;;0.70;;
22382;SDS011;11359;45.802;13.530;2023-04-07T10:26:58;1.33;;;0.80;;
22382;SDS011;11359;45.802;13.530;2023-04-07T10:29:28;0.93;;;0.85;;
22382;SDS011;11359;45.802;13.530;2023-04-07T10:32:00;0.98;;;0.80;;
22382;SDS011;11359;45.802;13.530;2023-04-07T10:37:13;1.00;;;0.80;;
22382;SDS011;11359;45.802;13.530;2023-04-07T10:39:41;1.10;;;0.90;;
22382;SDS011;11359;45.802;13.530;2023-04-07T10:42:42;0.90;;;0.75;;
22382;SDS011;11359;45.802;13.530;2023-04-07T10:45:02;1.10;;;0.80;;
22382;SDS011;11359;45.802;13.530;2023-04-07T10:47:31;0.95;;;0.90;;
22382;SDS011;11359;45.802;13.530;2023-04-07T10:50:14;1.02;;;0.93;;
22382;SDS011;11359;45.802;13.530;2023-04-07T10:52:45;0.90;;;0.70;;
22382;SDS011;11359;45.802;13.530;2023-04-07T10:55:31;1.10;;;0.80;;
22382;SDS011;11359;45.802;13.530;2023-04-07T11:01:27;0.98;;;0.82;;
22382;SDS011;11359;45.802;13.530;2023-04-07T11:03:35;1.00;;;0.70;;
22382;SDS011;11359;45.802;13.530;2023-04-07T11:06:17;1.20;;;0.80;;
22382;SDS011;11359;45.802;13.530;2023-04-07T11:08:46;1.35;;;0.80;;
22382;SDS011;11359;45.802;13.530;2023-04-07T11:11:13;1.15;;;0.80;;
22382;SDS011;11359;45.802;13.530;2023-04-07T11:16:07;0.85;;;0.70;;
22382;SDS011;11359;45.802;13.530;2023-04-07T11:18:33;0.90;;;0.70;;
22382;SDS011;11359;45.802;13.530;2023-04-07T11:21:00;1.15;;;0.80;;
22382;SDS011;11359;45.802;13.530;2023-04-07T11:23:27;0.98;;;0.77;;
22382;SDS011;11359;45.802;13.530;2023-04-07T11:26:00;1.73;;;0.80;;
22382;SDS011;11359;45.802;13.530;2023-04-07T11:28:27;0.70;;;0.65;;
22382;SDS011;11359;45.802;13.530;2023-04-07T11:30:54;0.80;;;0.68;;
22382;SDS011;11359;45.802;13.530;2023-04-07T11:33:21;0.73;;;0.60;;
22382;SDS011;11359;45.802;13.530;2023-04-07T11:35:51;0.50;;;0.50;;
22382;SDS011;11359;45.802;13.530;2023-04-07T11:38:19;0.77;;;0.63;;
22382;SDS011;11359;45.802;13.530;2023-04-07T11:40:46;0.40;;;0.40;;
22382;SDS011;11359;45.802;13.530;2023-04-07T11:43:17;0.80;;;0.50;;
22382;SDS011;11359;45.802;13.530;2023-04-07T11:45:45;0.60;;;0.50;;
22382;SDS011;11359;45.802;13.530;2023-04-07T11:48:27;0.68;;;0.57;;
22382;SDS011;11359;45.802;13.530;2023-04-07T11:50:54;0.63;;;0.60;;
22382;SDS011;11359;45.802;13.530;2023-04-07T11:53:25;0.90;;;0.70;;
22382;SDS011;11359;45.802;13.530;2023-04-07T11:58:24;0.85;;;0.80;;
22382;SDS011;11359;45.802;13.530;2023-04-07T12:00:53;1.75;;;1.45;;
22382;SDS011;11359;45.802;13.530;2023-04-07T12:03:23;1.50;;;1.10;;
22382;SDS011;11359;45.802;13.530;2023-04-07T12:05:49;1.00;;;0.80;;
22382;SDS011;11359;45.802;13.530;2023-04-07T12:08:15;1.10;;;0.80;;
22382;SDS011;11359;45.802;13.530;2023-04-07T12:10:42;1.52;;;1.17;;
22382;SDS011;11359;45.802;13.530;2023-04-07T12:13:08;1.20;;;0.90;;
22382;SDS011;11359;45.802;13.530;2023-04-07T12:15:34;1.67;;;1.35;;
22382;SDS011;11359;45.802;13.530;2023-04-07T12:18:01;1.15;;;0.98;;
22382;SDS011;11359;45.802;13.530;2023-04-07T12:20:27;1.33;;;1.10;;
22382;SDS011;11359;45.802;13.530;2023-04-07T12:22:54;1.50;;;1.13;;
22382;SDS011;11359;45.802;13.530;2023-04-07T12:25:20;1.15;;;1.02;;
22382;SDS011;11359;45.802;13.530;2023-04-07T12:27:45;1.23;;;1.13;;
22382;SDS011;11359;45.802;13.530;2023-04-07T12:30:11;3.10;;;2.80;;
22382;SDS011;11359;45.802;13.530;2023-04-07T12:32:37;3.70;;;2.42;;
22382;SDS011;11359;45.802;13.530;2023-04-07T12:35:04;5.25;;;2.85;;
22382;SDS011;11359;45.802;13.530;2023-04-07T12:37:31;2.72;;;2.28;;
22382;SDS011;11359;45.802;13.530;2023-04-07T12:39:57;2.83;;;2.10;;
22382;SDS011;11359;45.802;13.530;2023-04-07T12:42:23;2.65;;;1.90;;
22382;SDS011;11359;45.802;13.530;2023-04-07T12:44:49;2.13;;;1.80;;
22382;SDS011;11359;45.802;13.530;2023-04-07T12:47:15;3.53;;;2.38;;
22382;SDS011;11359;45.802;13.530;2023-04-07T12:49:41;2.55;;;2.17;;
22382;SDS011;11359;45.802;13.530;2023-04-07T12:52:08;2.30;;;2.10;;
22382;SDS011;11359;45.802;13.530;2023-04-07T12:54:33;3.17;;;2.40;;
22382;SDS011;11359;45.802;13.530;2023-04-07T12:57:00;1.98;;;1.70;;
22382;SDS011;11359;45.802;13.530;2023-04-07T12:59:25;2.10;;;1.60;;
22382;SDS011;11359;45.802;13.530;2023-04-07T13:01:51;1.40;;;1.20;;
22382;SDS011;11359;45.802;13.530;2023-04-07T13:04:17;1.90;;;1.60;;
22382;SDS011;11359;45.802;13.530;2023-04-07T13:06:43;1.67;;;1.30;;
22382;SDS011;11359;45.802;13.530;2023-04-07T13:09:09;1.30;;;1.08;;
22382;SDS011;11359;45.802;13.530;2023-04-07T13:11:35;1.00;;;0.90;;
22382;SDS011;11359;45.802;13.530;2023-04-07T13:14:01;1.80;;;1.13;;
22382;SDS011;11359;45.802;13.530;2023-04-07T13:16:27;1.65;;;1.50;;
22382;SDS011;11359;45.802;13.530;2023-04-07T13:18:54;2.00;;;1.40;;
22382;SDS011;11359;45.802;13.530;2023-04-07T13:21:20;1.30;;;1.20;;
22382;SDS011;11359;45.802;13.530;2023-04-07T13:23:49;1.67;;;1.35;;
22382;SDS011;11359;45.802;13.530;2023-04-07T13:26:15;1.30;;;1.20;;
22382;SDS011;11359;45.802;13.530;2023-04-07T13:28:41;1.58;;;1.42;;
22382;SDS011;11359;45.802;13.530;2023-04-07T13:31:10;1.67;;;1.50;;
22382;SDS011;11359;45.802;13.530;2023-04-07T13:33:39;1.50;;;1.10;;
22382;SDS011;11359;45.802;13.530;2023-04-07T13:36:06;2.70;;;2.28;;
22382;SDS011;11359;45.802;13.530;2023-04-07T13:38:32;2.28;;;2.08;;
22382;SDS011;11359;45.802;13.530;2023-04-07T13:40:58;2.15;;;1.80;;
22382;SDS011;11359;45.802;13.530;2023-04-07T13:43:23;1.83;;;1.55;;
22382;SDS011;11359;45.802;13.530;2023-04-07T13:45:49;1.38;;;1.23;;
22382;SDS011;11359;45.802;13.530;2023-04-07T13:48:17;1.88;;;1.45;;
22382;SDS011;11359;45.802;13.530;2023-04-07T13:50:42;1.40;;;1.30;;
22382;SDS011;11359;45.802;13.530;2023-04-07T13:53:08;2.78;;;2.15;;
22382;SDS011;11359;45.802;13.530;2023-04-07T13:55:34;4.18;;;2.17;;
22382;SDS011;11359;45.802;13.530;2023-04-07T13:58:01;2.65;;;1.90;;
22382;SDS011;11359;45.802;13.530;2023-04-07T14:00:27;1.38;;;1.15;;
22382;SDS011;11359;45.802;13.530;2023-04-07T14:02:52;1.15;;;0.90;;
22382;SDS011;11359;45.802;13.530;2023-04-07T14:05:20;1.60;;;1.30;;
22382;SDS011;11359;45.802;13.530;2023-04-07T14:07:46;1.70;;;1.20;;
22382;SDS011;11359;45.802;13.530;2023-04-07T14:10:12;0.80;;;0.73;;
22382;SDS011;11359;45.802;13.530;2023-04-07T14:12:37;1.17;;;1.08;;
22382;SDS011;11359;45.802;13.530;2023-04-07T14:15:03;1.77;;;1.25;;
22382;SDS011;11359;45.802;13.530;2023-04-07T14:17:30;2.38;;;2.17;;
22382;SDS011;11359;45.802;13.530;2023-04-07T14:19:58;1.80;;;1.60;;
22382;SDS011;11359;45.802;13.530;2023-04-07T14:22:24;2.50;;;2.00;;
22382;SDS011;11359;45.802;13.530;2023-04-07T14:24:50;2.63;;;2.20;;
22382;SDS011;11359;45.802;13.530;2023-04-07T14:27:16;2.50;;;2.10;;
22382;SDS011;11359;45.802;13.530;2023-04-07T14:29:45;1.95;;;1.55;;
22382;SDS011;11359;45.802;13.530;2023-04-07T14:32:12;4.55;;;2.58;;
22382;SDS011;11359;45.802;13.530;2023-04-07T14:34:38;5.10;;;4.28;;
22382;SDS011;11359;45.802;13.530;2023-04-07T14:37:03;2.83;;;2.53;;
22382;SDS011;11359;45.802;13.530;2023-04-07T14:39:30;2.20;;;2.00;;
22382;SDS011;11359;45.802;13.530;2023-04-07T14:41:59;2.47;;;2.03;;
22382;SDS011;11359;45.802;13.530;2023-04-07T14:44:25;2.72;;;2.03;;
22382;SDS011;11359;45.802;13.530;2023-04-07T14:46:53;2.78;;;2.15;;
22382;SDS011;11359;45.802;13.530;2023-04-07T14:49:19;1.92;;;1.65;;
22382;SDS011;11359;45.802;13.530;2023-04-07T14:51:45;1.60;;;1.48;;
22382;SDS011;11359;45.802;13.530;2023-04-07T14:54:11;1.98;;;1.65;;
22382;SDS011;11359;45.802;13.530;2023-04-07T14:56:37;1.55;;;1.30;;